Terminal Aerodrome Forecast
Issued by NWS

Home | Current Version | Previous Version | Text Only | Print | Product List | Glossary On
Versions: 1 2 3 4 5 6 7 8 9 10 11 12
000
FTUS44 KBMX 222300
TAFANB
TAF
KANB 222339Z 2300/2324 10008KT P6SM SCT050 SCT250
     FM230100 08008KT P6SM OVC020
     FM230800 07010KT P6SM SHRA OVC015
     FM231500 10010G18KT 4SM RA BR OVC015=

USA.gov is the U.S. government's official web portal to all federal, state and local government web resources and services.